< < Back
Terminal Aerodrome Forecast


Current Version              Previous Versions:   1  2  3  4  5  6  7  8  9  

Terminal Aerodrome Forecast

105
FTUS42 KCHS 261900 AAA
TAFCHS
TAF AMD
KCHS 261959Z 2620/2718 29010G15KT P6SM SCT035
     FM262200 26006KT P6SM SKC
     FM271100 24009KT P6SM FEW050 WS015/26040KT
     FM271330 29015G25KT P6SM SKC=



Latest METAR

140
SAUS80 KWBC 271100
MTRCHS
METAR KCHS 271056Z 24008KT 10SM FEW075 07/03 A3009 RMK AO2 SLP190
T00720028


USA.gov is the U.S. government's official web portal to all federal, state and local government web resources and services.